Whitetop, Virginia
Current Conditions -  °F | °C
As of 10:15 AM on Saturday 22 Nov 2014 (Local Time) from KGEV Reporting Station
Clear Clear  
Wind Chill: 36°   Ceiling: Unl
Heat Index: 36°   Visibility: 10mi
Dew Point: 11°   Wind: 0mph
Humidity: 35%   Direction: NA
Pressure: 30.42"   Gusts: NA
Location:  36.6°N, 81.63°W
Report Text: KGEV 221515Z AUTO 00000KT 10SM CLR 02/M12 A3042 RMK AO2 T00221119
Loading
Personal Weather Stations






























Interactive Weather Map New forecast layout! Learn more

10-Day Weather Forecast

Advertisements
Track Severe Weather on mobile